sensor_id;sensor_type;location;lat;lon;timestamp;P1;durP1;ratioP1;P2;durP2;ratioP2
60372;SDS011;46216;52.220;5.134;2023-08-07T00:00:36;12.48;;;2.65;;
60372;SDS011;46216;52.220;5.134;2023-08-07T00:03:02;7.78;;;2.80;;
60372;SDS011;46216;52.220;5.134;2023-08-07T00:05:27;12.07;;;3.15;;
60372;SDS011;46216;52.220;5.134;2023-08-07T00:07:53;13.70;;;3.38;;
60372;SDS011;46216;52.220;5.134;2023-08-07T00:10:18;12.38;;;3.10;;
60372;SDS011;46216;52.220;5.134;2023-08-07T00:12:44;17.35;;;3.20;;
60372;SDS011;46216;52.220;5.134;2023-08-07T00:15:09;11.60;;;2.90;;
60372;SDS011;46216;52.220;5.134;2023-08-07T00:17:36;11.18;;;2.63;;
60372;SDS011;46216;52.220;5.134;2023-08-07T00:20:02;12.85;;;2.95;;
60372;SDS011;46216;52.220;5.134;2023-08-07T00:22:27;13.45;;;3.05;;
60372;SDS011;46216;52.220;5.134;2023-08-07T00:24:53;8.82;;;3.22;;
60372;SDS011;46216;52.220;5.134;2023-08-07T00:27:18;12.10;;;2.97;;
60372;SDS011;46216;52.220;5.134;2023-08-07T00:29:44;10.13;;;2.67;;
60372;SDS011;46216;52.220;5.134;2023-08-07T00:32:09;10.27;;;2.67;;
60372;SDS011;46216;52.220;5.134;2023-08-07T00:34:34;13.10;;;2.90;;
60372;SDS011;46216;52.220;5.134;2023-08-07T00:37:00;9.85;;;2.80;;
60372;SDS011;46216;52.220;5.134;2023-08-07T00:39:25;9.60;;;2.58;;
60372;SDS011;46216;52.220;5.134;2023-08-07T00:41:50;12.30;;;2.90;;
60372;SDS011;46216;52.220;5.134;2023-08-07T00:44:16;13.73;;;2.95;;
60372;SDS011;46216;52.220;5.134;2023-08-07T00:46:41;14.20;;;3.22;;
60372;SDS011;46216;52.220;5.134;2023-08-07T00:49:07;15.63;;;3.08;;
60372;SDS011;46216;52.220;5.134;2023-08-07T00:51:36;10.57;;;3.03;;
60372;SDS011;46216;52.220;5.134;2023-08-07T00:54:03;8.02;;;3.40;;
60372;SDS011;46216;52.220;5.134;2023-08-07T00:56:30;11.07;;;3.33;;
60372;SDS011;46216;52.220;5.134;2023-08-07T00:58:57;11.73;;;3.10;;
60372;SDS011;46216;52.220;5.134;2023-08-07T01:01:23;15.98;;;3.35;;
60372;SDS011;46216;52.220;5.134;2023-08-07T01:03:48;12.48;;;3.30;;
60372;SDS011;46216;52.220;5.134;2023-08-07T01:06:14;12.85;;;2.95;;
60372;SDS011;46216;52.220;5.134;2023-08-07T01:08:39;14.60;;;3.00;;
60372;SDS011;46216;52.220;5.134;2023-08-07T01:16:44;12.45;;;2.80;;
60372;SDS011;46216;52.220;5.134;2023-08-07T01:19:23;11.48;;;2.88;;
60372;SDS011;46216;52.220;5.134;2023-08-07T01:22:05;12.30;;;2.40;;
60372;SDS011;46216;52.220;5.134;2023-08-07T01:24:34;6.93;;;2.50;;
60372;SDS011;46216;52.220;5.134;2023-08-07T01:27:10;8.77;;;2.40;;
60372;SDS011;46216;52.220;5.134;2023-08-07T01:29:43;11.13;;;3.25;;
60372;SDS011;46216;52.220;5.134;2023-08-07T01:32:09;10.18;;;2.55;;
60372;SDS011;46216;52.220;5.134;2023-08-07T01:34:42;11.20;;;2.78;;
60372;SDS011;46216;52.220;5.134;2023-08-07T01:37:10;12.48;;;2.95;;
60372;SDS011;46216;52.220;5.134;2023-08-07T01:39:37;8.63;;;2.78;;
60372;SDS011;46216;52.220;5.134;2023-08-07T01:42:03;10.35;;;2.47;;
60372;SDS011;46216;52.220;5.134;2023-08-07T01:44:30;10.20;;;3.20;;
60372;SDS011;46216;52.220;5.134;2023-08-07T01:46:55;9.75;;;2.60;;
60372;SDS011;46216;52.220;5.134;2023-08-07T01:49:21;7.90;;;2.40;;
60372;SDS011;46216;52.220;5.134;2023-08-07T01:51:46;13.15;;;3.10;;
60372;SDS011;46216;52.220;5.134;2023-08-07T01:54:11;10.40;;;2.45;;
60372;SDS011;46216;52.220;5.134;2023-08-07T01:56:37;10.27;;;2.75;;
60372;SDS011;46216;52.220;5.134;2023-08-07T01:59:02;7.90;;;2.38;;
60372;SDS011;46216;52.220;5.134;2023-08-07T02:01:27;8.88;;;2.30;;
60372;SDS011;46216;52.220;5.134;2023-08-07T02:03:53;9.65;;;2.47;;
60372;SDS011;46216;52.220;5.134;2023-08-07T02:06:18;4.78;;;2.22;;
60372;SDS011;46216;52.220;5.134;2023-08-07T02:08:43;9.98;;;2.45;;
60372;SDS011;46216;52.220;5.134;2023-08-07T02:11:09;12.65;;;2.70;;
60372;SDS011;46216;52.220;5.134;2023-08-07T02:13:34;12.93;;;2.85;;
60372;SDS011;46216;52.220;5.134;2023-08-07T02:15:59;15.35;;;2.72;;
60372;SDS011;46216;52.220;5.134;2023-08-07T02:18:25;9.45;;;2.72;;
60372;SDS011;46216;52.220;5.134;2023-08-07T02:20:50;13.20;;;3.00;;
60372;SDS011;46216;52.220;5.134;2023-08-07T02:23:15;12.15;;;2.53;;
60372;SDS011;46216;52.220;5.134;2023-08-07T02:25:41;8.85;;;2.80;;
60372;SDS011;46216;52.220;5.134;2023-08-07T02:28:06;8.55;;;2.60;;
60372;SDS011;46216;52.220;5.134;2023-08-07T02:30:31;12.77;;;3.38;;
60372;SDS011;46216;52.220;5.134;2023-08-07T02:32:57;13.23;;;2.95;;
60372;SDS011;46216;52.220;5.134;2023-08-07T02:35:22;8.68;;;2.70;;
60372;SDS011;46216;52.220;5.134;2023-08-07T02:37:47;15.73;;;3.00;;
60372;SDS011;46216;52.220;5.134;2023-08-07T02:40:13;14.57;;;3.08;;
60372;SDS011;46216;52.220;5.134;2023-08-07T02:42:40;12.00;;;3.20;;
60372;SDS011;46216;52.220;5.134;2023-08-07T02:45:07;11.10;;;3.47;;
60372;SDS011;46216;52.220;5.134;2023-08-07T02:47:32;8.40;;;2.90;;
60372;SDS011;46216;52.220;5.134;2023-08-07T02:49:58;10.55;;;2.72;;
60372;SDS011;46216;52.220;5.134;2023-08-07T02:52:24;9.82;;;2.63;;
60372;SDS011;46216;52.220;5.134;2023-08-07T02:54:49;9.63;;;2.20;;
60372;SDS011;46216;52.220;5.134;2023-08-07T02:57:15;8.77;;;2.35;;
60372;SDS011;46216;52.220;5.134;2023-08-07T02:59:40;11.35;;;2.42;;
60372;SDS011;46216;52.220;5.134;2023-08-07T03:02:05;10.68;;;2.28;;
60372;SDS011;46216;52.220;5.134;2023-08-07T03:04:31;9.68;;;2.38;;
60372;SDS011;46216;52.220;5.134;2023-08-07T03:06:56;7.53;;;2.55;;
60372;SDS011;46216;52.220;5.134;2023-08-07T03:09:21;10.52;;;2.60;;
60372;SDS011;46216;52.220;5.134;2023-08-07T03:11:47;7.45;;;2.38;;
60372;SDS011;46216;52.220;5.134;2023-08-07T03:14:12;9.60;;;2.17;;
60372;SDS011;46216;52.220;5.134;2023-08-07T03:16:37;9.00;;;2.10;;
60372;SDS011;46216;52.220;5.134;2023-08-07T03:19:03;8.40;;;1.92;;
60372;SDS011;46216;52.220;5.134;2023-08-07T03:21:28;6.80;;;2.05;;
60372;SDS011;46216;52.220;5.134;2023-08-07T03:23:53;7.40;;;1.98;;
60372;SDS011;46216;52.220;5.134;2023-08-07T03:26:19;6.53;;;2.00;;
60372;SDS011;46216;52.220;5.134;2023-08-07T03:28:44;8.95;;;2.13;;
60372;SDS011;46216;52.220;5.134;2023-08-07T03:31:11;9.57;;;2.20;;
60372;SDS011;46216;52.220;5.134;2023-08-07T03:33:37;7.63;;;2.10;;
60372;SDS011;46216;52.220;5.134;2023-08-07T03:36:02;6.03;;;2.10;;
60372;SDS011;46216;52.220;5.134;2023-08-07T03:38:28;7.40;;;2.47;;
60372;SDS011;46216;52.220;5.134;2023-08-07T03:40:53;7.68;;;2.28;;
60372;SDS011;46216;52.220;5.134;2023-08-07T03:43:19;9.55;;;2.35;;
60372;SDS011;46216;52.220;5.134;2023-08-07T03:45:44;11.25;;;2.70;;
60372;SDS011;46216;52.220;5.134;2023-08-07T03:48:12;8.70;;;2.17;;
60372;SDS011;46216;52.220;5.134;2023-08-07T03:50:37;12.55;;;3.13;;
60372;SDS011;46216;52.220;5.134;2023-08-07T03:53:03;9.90;;;2.30;;
60372;SDS011;46216;52.220;5.134;2023-08-07T03:55:29;10.48;;;2.70;;
60372;SDS011;46216;52.220;5.134;2023-08-07T03:57:55;9.30;;;2.35;;
60372;SDS011;46216;52.220;5.134;2023-08-07T04:00:21;8.27;;;2.45;;
60372;SDS011;46216;52.220;5.134;2023-08-07T04:02:46;10.52;;;2.60;;
60372;SDS011;46216;52.220;5.134;2023-08-07T04:05:12;10.05;;;2.75;;
60372;SDS011;46216;52.220;5.134;2023-08-07T04:07:37;9.73;;;2.60;;
60372;SDS011;46216;52.220;5.134;2023-08-07T04:10:02;12.98;;;2.92;;
60372;SDS011;46216;52.220;5.134;2023-08-07T04:12:28;8.75;;;3.08;;
60372;SDS011;46216;52.220;5.134;2023-08-07T04:14:53;11.98;;;3.15;;
60372;SDS011;46216;52.220;5.134;2023-08-07T04:17:19;10.25;;;2.90;;
60372;SDS011;46216;52.220;5.134;2023-08-07T04:19:44;9.65;;;3.28;;
60372;SDS011;46216;52.220;5.134;2023-08-07T04:22:09;9.60;;;3.10;;
60372;SDS011;46216;52.220;5.134;2023-08-07T04:24:35;11.63;;;2.90;;
60372;SDS011;46216;52.220;5.134;2023-08-07T04:27:00;8.52;;;2.33;;
60372;SDS011;46216;52.220;5.134;2023-08-07T04:29:25;11.70;;;3.42;;
60372;SDS011;46216;52.220;5.134;2023-08-07T04:31:51;9.20;;;2.60;;
60372;SDS011;46216;52.220;5.134;2023-08-07T04:34:16;6.95;;;2.45;;
60372;SDS011;46216;52.220;5.134;2023-08-07T04:36:41;11.48;;;2.70;;
60372;SDS011;46216;52.220;5.134;2023-08-07T04:39:07;11.15;;;2.60;;
60372;SDS011;46216;52.220;5.134;2023-08-07T04:41:32;9.70;;;3.22;;
60372;SDS011;46216;52.220;5.134;2023-08-07T04:43:58;12.38;;;2.95;;
60372;SDS011;46216;52.220;5.134;2023-08-07T04:46:23;9.30;;;2.90;;
60372;SDS011;46216;52.220;5.134;2023-08-07T04:48:48;9.75;;;2.72;;
60372;SDS011;46216;52.220;5.134;2023-08-07T04:51:14;12.90;;;2.88;;
60372;SDS011;46216;52.220;5.134;2023-08-07T04:53:40;9.82;;;3.13;;
60372;SDS011;46216;52.220;5.134;2023-08-07T04:56:05;10.27;;;3.03;;
60372;SDS011;46216;52.220;5.134;2023-08-07T04:58:31;10.05;;;2.63;;
60372;SDS011;46216;52.220;5.134;2023-08-07T05:00:57;13.80;;;3.17;;
60372;SDS011;46216;52.220;5.134;2023-08-07T05:03:23;14.85;;;3.00;;
60372;SDS011;46216;52.220;5.134;2023-08-07T05:05:49;12.85;;;2.50;;
60372;SDS011;46216;52.220;5.134;2023-08-07T05:08:15;7.90;;;2.50;;
60372;SDS011;46216;52.220;5.134;2023-08-07T05:10:41;12.10;;;2.88;;
60372;SDS011;46216;52.220;5.134;2023-08-07T05:13:06;9.80;;;2.90;;
60372;SDS011;46216;52.220;5.134;2023-08-07T05:15:32;7.95;;;3.00;;
60372;SDS011;46216;52.220;5.134;2023-08-07T05:17:57;11.85;;;3.10;;
60372;SDS011;46216;52.220;5.134;2023-08-07T05:20:23;11.15;;;3.08;;
60372;SDS011;46216;52.220;5.134;2023-08-07T05:22:48;10.95;;;2.80;;
60372;SDS011;46216;52.220;5.134;2023-08-07T05:25:14;6.43;;;2.00;;
60372;SDS011;46216;52.220;5.134;2023-08-07T05:27:44;5.30;;;1.75;;
60372;SDS011;46216;52.220;5.134;2023-08-07T05:30:09;6.10;;;1.85;;
60372;SDS011;46216;52.220;5.134;2023-08-07T05:32:35;9.38;;;2.50;;
60372;SDS011;46216;52.220;5.134;2023-08-07T05:35:05;11.55;;;2.30;;
60372;SDS011;46216;52.220;5.134;2023-08-07T05:37:32;8.10;;;2.55;;
60372;SDS011;46216;52.220;5.134;2023-08-07T05:39:58;12.05;;;3.38;;
60372;SDS011;46216;52.220;5.134;2023-08-07T05:42:24;8.70;;;3.60;;
60372;SDS011;46216;52.220;5.134;2023-08-07T05:44:49;13.18;;;2.92;;
60372;SDS011;46216;52.220;5.134;2023-08-07T05:47:14;15.50;;;3.28;;
60372;SDS011;46216;52.220;5.134;2023-08-07T05:49:40;8.40;;;3.05;;
60372;SDS011;46216;52.220;5.134;2023-08-07T05:52:05;11.75;;;3.58;;
60372;SDS011;46216;52.220;5.134;2023-08-07T05:54:31;18.63;;;3.88;;
60372;SDS011;46216;52.220;5.134;2023-08-07T05:56:57;13.00;;;3.45;;
60372;SDS011;46216;52.220;5.134;2023-08-07T05:59:22;13.40;;;3.78;;
60372;SDS011;46216;52.220;5.134;2023-08-07T06:01:48;13.32;;;3.78;;
60372;SDS011;46216;52.220;5.134;2023-08-07T06:04:13;11.88;;;3.40;;
60372;SDS011;46216;52.220;5.134;2023-08-07T06:06:38;12.50;;;3.47;;
60372;SDS011;46216;52.220;5.134;2023-08-07T06:09:04;17.45;;;3.67;;
60372;SDS011;46216;52.220;5.134;2023-08-07T06:11:31;18.25;;;4.25;;
60372;SDS011;46216;52.220;5.134;2023-08-07T06:13:57;13.63;;;3.80;;
60372;SDS011;46216;52.220;5.134;2023-08-07T06:16:23;14.65;;;3.80;;
60372;SDS011;46216;52.220;5.134;2023-08-07T06:18:49;18.73;;;4.25;;
60372;SDS011;46216;52.220;5.134;2023-08-07T06:21:14;11.00;;;3.63;;
60372;SDS011;46216;52.220;5.134;2023-08-07T06:23:40;19.27;;;3.97;;
60372;SDS011;46216;52.220;5.134;2023-08-07T06:26:05;15.32;;;3.90;;
60372;SDS011;46216;52.220;5.134;2023-08-07T06:28:32;12.07;;;3.25;;
60372;SDS011;46216;52.220;5.134;2023-08-07T06:31:05;13.20;;;3.58;;
60372;SDS011;46216;52.220;5.134;2023-08-07T06:33:32;10.15;;;3.60;;
60372;SDS011;46216;52.220;5.134;2023-08-07T06:35:58;14.93;;;4.10;;
60372;SDS011;46216;52.220;5.134;2023-08-07T06:38:24;17.17;;;3.72;;
60372;SDS011;46216;52.220;5.134;2023-08-07T06:40:50;13.70;;;3.60;;
60372;SDS011;46216;52.220;5.134;2023-08-07T06:43:15;14.30;;;3.53;;
60372;SDS011;46216;52.220;5.134;2023-08-07T06:45:40;17.67;;;3.90;;
60372;SDS011;46216;52.220;5.134;2023-08-07T06:48:06;12.57;;;3.65;;
60372;SDS011;46216;52.220;5.134;2023-08-07T06:50:31;12.35;;;3.75;;
60372;SDS011;46216;52.220;5.134;2023-08-07T06:52:57;12.85;;;3.78;;
60372;SDS011;46216;52.220;5.134;2023-08-07T06:55:22;10.32;;;3.22;;
60372;SDS011;46216;52.220;5.134;2023-08-07T06:57:48;16.40;;;3.90;;
60372;SDS011;46216;52.220;5.134;2023-08-07T07:00:13;12.13;;;3.83;;
60372;SDS011;46216;52.220;5.134;2023-08-07T07:02:39;12.45;;;3.38;;
60372;SDS011;46216;52.220;5.134;2023-08-07T07:05:05;20.48;;;3.83;;
60372;SDS011;46216;52.220;5.134;2023-08-07T07:07:31;9.82;;;4.10;;
60372;SDS011;46216;52.220;5.134;2023-08-07T07:09:56;14.20;;;3.67;;
60372;SDS011;46216;52.220;5.134;2023-08-07T07:12:25;13.30;;;4.10;;
60372;SDS011;46216;52.220;5.134;2023-08-07T07:14:51;13.85;;;3.65;;
60372;SDS011;46216;52.220;5.134;2023-08-07T07:17:16;12.70;;;3.75;;
60372;SDS011;46216;52.220;5.134;2023-08-07T07:19:42;11.35;;;3.58;;
60372;SDS011;46216;52.220;5.134;2023-08-07T07:22:07;11.48;;;3.58;;
60372;SDS011;46216;52.220;5.134;2023-08-07T07:24:32;13.02;;;3.65;;
60372;SDS011;46216;52.220;5.134;2023-08-07T07:26:58;13.02;;;3.85;;
60372;SDS011;46216;52.220;5.134;2023-08-07T07:29:23;13.88;;;3.70;;
60372;SDS011;46216;52.220;5.134;2023-08-07T07:31:49;14.45;;;3.85;;
60372;SDS011;46216;52.220;5.134;2023-08-07T07:34:15;10.77;;;3.67;;
60372;SDS011;46216;52.220;5.134;2023-08-07T07:36:40;13.60;;;4.18;;
60372;SDS011;46216;52.220;5.134;2023-08-07T07:39:06;18.23;;;4.28;;
60372;SDS011;46216;52.220;5.134;2023-08-07T07:41:31;11.43;;;4.22;;
60372;SDS011;46216;52.220;5.134;2023-08-07T07:43:57;16.90;;;4.05;;
60372;SDS011;46216;52.220;5.134;2023-08-07T07:46:22;18.30;;;5.10;;
60372;SDS011;46216;52.220;5.134;2023-08-07T07:48:49;14.50;;;3.25;;
60372;SDS011;46216;52.220;5.134;2023-08-07T07:51:14;18.58;;;3.67;;
60372;SDS011;46216;52.220;5.134;2023-08-07T07:53:39;9.80;;;3.78;;
60372;SDS011;46216;52.220;5.134;2023-08-07T07:56:05;11.30;;;3.65;;
60372;SDS011;46216;52.220;5.134;2023-08-07T07:58:30;7.30;;;3.50;;
60372;SDS011;46216;52.220;5.134;2023-08-07T08:00:56;5.68;;;2.60;;
60372;SDS011;46216;52.220;5.134;2023-08-07T08:03:21;11.02;;;3.42;;
60372;SDS011;46216;52.220;5.134;2023-08-07T08:05:49;11.30;;;3.13;;
60372;SDS011;46216;52.220;5.134;2023-08-07T08:08:16;10.13;;;3.35;;
60372;SDS011;46216;52.220;5.134;2023-08-07T08:10:42;11.50;;;3.42;;
60372;SDS011;46216;52.220;5.134;2023-08-07T08:13:08;9.25;;;2.67;;
60372;SDS011;46216;52.220;5.134;2023-08-07T08:15:35;9.88;;;3.30;;
60372;SDS011;46216;52.220;5.134;2023-08-07T08:18:00;12.90;;;3.33;;
60372;SDS011;46216;52.220;5.134;2023-08-07T08:20:25;13.43;;;3.42;;
60372;SDS011;46216;52.220;5.134;2023-08-07T08:22:51;14.60;;;3.60;;
60372;SDS011;46216;52.220;5.134;2023-08-07T08:25:16;11.63;;;3.40;;
60372;SDS011;46216;52.220;5.134;2023-08-07T08:27:43;9.85;;;3.00;;
60372;SDS011;46216;52.220;5.134;2023-08-07T08:30:08;13.40;;;3.10;;
60372;SDS011;46216;52.220;5.134;2023-08-07T08:32:34;9.55;;;2.80;;
60372;SDS011;46216;52.220;5.134;2023-08-07T08:35:00;7.68;;;2.70;;
60372;SDS011;46216;52.220;5.134;2023-08-07T08:37:25;10.48;;;2.80;;
60372;SDS011;46216;52.220;5.134;2023-08-07T08:39:51;13.65;;;2.95;;
60372;SDS011;46216;52.220;5.134;2023-08-07T08:42:16;8.05;;;3.10;;
60372;SDS011;46216;52.220;5.134;2023-08-07T08:45:06;9.30;;;2.80;;
60372;SDS011;46216;52.220;5.134;2023-08-07T08:47:33;10.48;;;3.35;;
60372;SDS011;46216;52.220;5.134;2023-08-07T08:50:03;13.57;;;3.25;;
60372;SDS011;46216;52.220;5.134;2023-08-07T08:52:31;7.85;;;2.70;;
60372;SDS011;46216;52.220;5.134;2023-08-07T08:54:57;11.25;;;3.88;;
60372;SDS011;46216;52.220;5.134;2023-08-07T08:57:26;6.97;;;3.03;;
60372;SDS011;46216;52.220;5.134;2023-08-07T08:59:53;11.75;;;3.33;;
60372;SDS011;46216;52.220;5.134;2023-08-07T09:02:19;11.82;;;3.00;;
60372;SDS011;46216;52.220;5.134;2023-08-07T09:04:44;8.88;;;2.90;;
60372;SDS011;46216;52.220;5.134;2023-08-07T09:07:14;9.38;;;2.83;;
60372;SDS011;46216;52.220;5.134;2023-08-07T09:09:43;10.13;;;2.85;;
60372;SDS011;46216;52.220;5.134;2023-08-07T09:12:12;8.50;;;3.10;;
60372;SDS011;46216;52.220;5.134;2023-08-07T09:14:44;12.40;;;2.90;;
60372;SDS011;46216;52.220;5.134;2023-08-07T09:17:14;8.75;;;3.25;;
60372;SDS011;46216;52.220;5.134;2023-08-07T09:19:41;8.02;;;2.95;;
60372;SDS011;46216;52.220;5.134;2023-08-07T09:22:07;7.00;;;2.40;;
60372;SDS011;46216;52.220;5.134;2023-08-07T09:24:33;10.93;;;2.78;;
60372;SDS011;46216;52.220;5.134;2023-08-07T09:26:59;9.68;;;2.50;;
60372;SDS011;46216;52.220;5.134;2023-08-07T09:29:25;10.48;;;2.80;;
60372;SDS011;46216;52.220;5.134;2023-08-07T09:31:52;10.20;;;2.85;;
60372;SDS011;46216;52.220;5.134;2023-08-07T09:34:19;9.90;;;2.90;;
60372;SDS011;46216;52.220;5.134;2023-08-07T09:36:45;10.98;;;2.92;;
60372;SDS011;46216;52.220;5.134;2023-08-07T09:39:11;9.20;;;2.90;;
60372;SDS011;46216;52.220;5.134;2023-08-07T09:41:36;9.50;;;3.00;;
60372;SDS011;46216;52.220;5.134;2023-08-07T09:44:10;14.63;;;3.40;;
60372;SDS011;46216;52.220;5.134;2023-08-07T09:46:41;12.75;;;3.70;;
60372;SDS011;46216;52.220;5.134;2023-08-07T09:49:08;7.40;;;2.63;;
60372;SDS011;46216;52.220;5.134;2023-08-07T09:51:46;11.10;;;2.85;;
60372;SDS011;46216;52.220;5.134;2023-08-07T09:54:12;11.77;;;2.83;;
60372;SDS011;46216;52.220;5.134;2023-08-07T09:56:39;5.40;;;2.35;;
60372;SDS011;46216;52.220;5.134;2023-08-07T09:59:05;6.72;;;2.35;;
60372;SDS011;46216;52.220;5.134;2023-08-07T10:01:31;8.65;;;2.20;;
60372;SDS011;46216;52.220;5.134;2023-08-07T10:03:57;10.18;;;2.30;;
60372;SDS011;46216;52.220;5.134;2023-08-07T10:06:23;8.05;;;2.40;;
60372;SDS011;46216;52.220;5.134;2023-08-07T10:08:48;8.55;;;2.60;;
60372;SDS011;46216;52.220;5.134;2023-08-07T10:11:14;8.35;;;2.63;;
60372;SDS011;46216;52.220;5.134;2023-08-07T10:13:41;9.98;;;2.78;;
60372;SDS011;46216;52.220;5.134;2023-08-07T10:16:07;10.95;;;2.53;;
60372;SDS011;46216;52.220;5.134;2023-08-07T10:18:33;10.52;;;2.75;;
60372;SDS011;46216;52.220;5.134;2023-08-07T10:21:00;13.60;;;3.28;;
60372;SDS011;46216;52.220;5.134;2023-08-07T10:23:26;11.63;;;3.17;;
60372;SDS011;46216;52.220;5.134;2023-08-07T10:25:52;8.45;;;2.70;;
60372;SDS011;46216;52.220;5.134;2023-08-07T10:28:19;5.82;;;2.33;;
60372;SDS011;46216;52.220;5.134;2023-08-07T10:30:47;7.45;;;2.58;;
60372;SDS011;46216;52.220;5.134;2023-08-07T10:33:13;10.18;;;2.50;;
60372;SDS011;46216;52.220;5.134;2023-08-07T10:35:44;7.00;;;2.22;;
60372;SDS011;46216;52.220;5.134;2023-08-07T10:38:12;7.78;;;2.17;;
60372;SDS011;46216;52.220;5.134;2023-08-07T10:43:28;6.20;;;2.20;;
60372;SDS011;46216;52.220;5.134;2023-08-07T10:45:54;8.60;;;2.55;;
60372;SDS011;46216;52.220;5.134;2023-08-07T10:48:27;5.57;;;2.42;;
60372;SDS011;46216;52.220;5.134;2023-08-07T10:51:05;8.07;;;2.58;;
60372;SDS011;46216;52.220;5.134;2023-08-07T10:56:01;7.35;;;2.75;;
60372;SDS011;46216;52.220;5.134;2023-08-07T10:58:35;8.07;;;2.67;;
60372;SDS011;46216;52.220;5.134;2023-08-07T11:06:29;9.02;;;2.58;;
60372;SDS011;46216;52.220;5.134;2023-08-07T11:08:56;13.93;;;3.47;;
60372;SDS011;46216;52.220;5.134;2023-08-07T11:11:22;6.32;;;2.38;;
60372;SDS011;46216;52.220;5.134;2023-08-07T11:13:48;8.68;;;2.97;;
60372;SDS011;46216;52.220;5.134;2023-08-07T11:16:13;8.20;;;2.47;;
60372;SDS011;46216;52.220;5.134;2023-08-07T11:18:39;9.75;;;2.55;;
60372;SDS011;46216;52.220;5.134;2023-08-07T11:21:07;9.02;;;2.45;;
60372;SDS011;46216;52.220;5.134;2023-08-07T11:23:36;9.02;;;2.65;;
60372;SDS011;46216;52.220;5.134;2023-08-07T11:26:05;11.57;;;2.90;;
60372;SDS011;46216;52.220;5.134;2023-08-07T11:28:31;6.43;;;2.10;;
60372;SDS011;46216;52.220;5.134;2023-08-07T11:30:56;13.77;;;2.95;;
60372;SDS011;46216;52.220;5.134;2023-08-07T11:33:26;9.00;;;2.47;;
60372;SDS011;46216;52.220;5.134;2023-08-07T11:35:52;10.70;;;2.58;;
60372;SDS011;46216;52.220;5.134;2023-08-07T11:38:31;6.13;;;2.38;;
60372;SDS011;46216;52.220;5.134;2023-08-07T11:41:04;6.47;;;1.92;;
60372;SDS011;46216;52.220;5.134;2023-08-07T11:43:31;5.57;;;2.22;;
60372;SDS011;46216;52.220;5.134;2023-08-07T11:45:59;3.20;;;1.88;;
60372;SDS011;46216;52.220;5.134;2023-08-07T11:48:26;8.50;;;2.17;;
60372;SDS011;46216;52.220;5.134;2023-08-07T11:50:53;6.18;;;1.73;;
60372;SDS011;46216;52.220;5.134;2023-08-07T11:53:24;6.22;;;1.88;;
60372;SDS011;46216;52.220;5.134;2023-08-07T11:55:55;6.85;;;1.90;;
60372;SDS011;46216;52.220;5.134;2023-08-07T11:58:22;5.82;;;1.75;;
60372;SDS011;46216;52.220;5.134;2023-08-07T12:00:49;6.85;;;2.13;;
60372;SDS011;46216;52.220;5.134;2023-08-07T12:03:25;6.32;;;2.13;;
60372;SDS011;46216;52.220;5.134;2023-08-07T12:05:59;5.43;;;1.80;;
60372;SDS011;46216;52.220;5.134;2023-08-07T12:08:31;3.70;;;1.75;;
60372;SDS011;46216;52.220;5.134;2023-08-07T12:11:09;6.10;;;1.70;;
60372;SDS011;46216;52.220;5.134;2023-08-07T12:13:37;6.55;;;1.83;;
60372;SDS011;46216;52.220;5.134;2023-08-07T12:16:05;7.75;;;1.73;;
60372;SDS011;46216;52.220;5.134;2023-08-07T12:18:32;4.10;;;1.67;;
60372;SDS011;46216;52.220;5.134;2023-08-07T12:21:02;4.70;;;1.58;;
60372;SDS011;46216;52.220;5.134;2023-08-07T12:23:34;5.70;;;1.60;;
60372;SDS011;46216;52.220;5.134;2023-08-07T12:26:00;4.75;;;1.35;;
60372;SDS011;46216;52.220;5.134;2023-08-07T12:28:26;3.30;;;1.60;;
60372;SDS011;46216;52.220;5.134;2023-08-07T12:30:51;4.20;;;1.52;;
60372;SDS011;46216;52.220;5.134;2023-08-07T12:33:18;3.40;;;1.58;;
60372;SDS011;46216;52.220;5.134;2023-08-07T12:35:44;3.75;;;1.52;;
60372;SDS011;46216;52.220;5.134;2023-08-07T12:38:10;3.97;;;1.50;;
60372;SDS011;46216;52.220;5.134;2023-08-07T12:40:36;4.88;;;1.50;;
60372;SDS011;46216;52.220;5.134;2023-08-07T12:43:03;6.70;;;1.73;;
60372;SDS011;46216;52.220;5.134;2023-08-07T12:45:31;4.78;;;1.92;;
60372;SDS011;46216;52.220;5.134;2023-08-07T12:47:58;8.02;;;1.65;;
60372;SDS011;46216;52.220;5.134;2023-08-07T12:50:24;5.88;;;1.80;;
60372;SDS011;46216;52.220;5.134;2023-08-07T12:52:50;3.92;;;1.90;;
60372;SDS011;46216;52.220;5.134;2023-08-07T12:55:16;4.53;;;1.80;;
60372;SDS011;46216;52.220;5.134;2023-08-07T12:57:41;4.72;;;1.80;;
60372;SDS011;46216;52.220;5.134;2023-08-07T13:00:08;6.93;;;1.70;;
60372;SDS011;46216;52.220;5.134;2023-08-07T13:02:37;5.45;;;1.50;;
60372;SDS011;46216;52.220;5.134;2023-08-07T13:05:05;3.80;;;2.10;;
60372;SDS011;46216;52.220;5.134;2023-08-07T13:07:31;6.13;;;1.80;;
60372;SDS011;46216;52.220;5.134;2023-08-07T13:09:56;4.93;;;1.77;;
60372;SDS011;46216;52.220;5.134;2023-08-07T13:12:22;4.22;;;1.50;;
60372;SDS011;46216;52.220;5.134;2023-08-07T13:14:47;3.33;;;1.30;;
60372;SDS011;46216;52.220;5.134;2023-08-07T13:17:13;3.95;;;1.58;;
60372;SDS011;46216;52.220;5.134;2023-08-07T13:19:38;4.38;;;1.60;;
60372;SDS011;46216;52.220;5.134;2023-08-07T13:22:04;4.25;;;1.55;;
60372;SDS011;46216;52.220;5.134;2023-08-07T13:24:29;2.17;;;1.40;;
60372;SDS011;46216;52.220;5.134;2023-08-07T13:26:54;4.00;;;1.65;;
60372;SDS011;46216;52.220;5.134;2023-08-07T13:29:20;3.28;;;1.60;;
60372;SDS011;46216;52.220;5.134;2023-08-07T13:31:46;4.60;;;1.67;;
60372;SDS011;46216;52.220;5.134;2023-08-07T13:34:13;4.20;;;1.60;;
60372;SDS011;46216;52.220;5.134;2023-08-07T13:36:38;3.85;;;1.33;;
60372;SDS011;46216;52.220;5.134;2023-08-07T13:39:04;4.57;;;1.52;;
60372;SDS011;46216;52.220;5.134;2023-08-07T13:41:31;2.63;;;1.55;;
60372;SDS011;46216;52.220;5.134;2023-08-07T13:43:57;4.57;;;1.40;;
60372;SDS011;46216;52.220;5.134;2023-08-07T13:46:23;4.43;;;1.45;;
60372;SDS011;46216;52.220;5.134;2023-08-07T13:48:48;4.10;;;1.50;;
60372;SDS011;46216;52.220;5.134;2023-08-07T13:51:14;2.88;;;1.42;;
60372;SDS011;46216;52.220;5.134;2023-08-07T13:53:39;3.35;;;1.40;;
60372;SDS011;46216;52.220;5.134;2023-08-07T13:56:05;4.28;;;1.80;;
60372;SDS011;46216;52.220;5.134;2023-08-07T13:58:32;3.53;;;1.50;;
60372;SDS011;46216;52.220;5.134;2023-08-07T14:00:57;4.88;;;1.45;;
60372;SDS011;46216;52.220;5.134;2023-08-07T14:03:23;3.50;;;1.52;;
60372;SDS011;46216;52.220;5.134;2023-08-07T14:05:49;3.53;;;1.20;;
60372;SDS011;46216;52.220;5.134;2023-08-07T14:08:15;4.55;;;1.50;;
60372;SDS011;46216;52.220;5.134;2023-08-07T14:10:41;1.67;;;1.30;;
60372;SDS011;46216;52.220;5.134;2023-08-07T14:13:06;4.18;;;1.60;;
60372;SDS011;46216;52.220;5.134;2023-08-07T14:15:32;3.92;;;1.65;;
60372;SDS011;46216;52.220;5.134;2023-08-07T14:17:58;2.80;;;1.70;;
60372;SDS011;46216;52.220;5.134;2023-08-07T14:20:23;4.00;;;1.83;;
60372;SDS011;46216;52.220;5.134;2023-08-07T14:22:51;4.45;;;2.15;;
60372;SDS011;46216;52.220;5.134;2023-08-07T14:25:17;4.75;;;1.88;;
60372;SDS011;46216;52.220;5.134;2023-08-07T14:27:42;3.92;;;1.77;;
60372;SDS011;46216;52.220;5.134;2023-08-07T14:30:08;4.35;;;1.67;;
60372;SDS011;46216;52.220;5.134;2023-08-07T14:32:33;6.93;;;1.65;;
60372;SDS011;46216;52.220;5.134;2023-08-07T14:34:59;3.75;;;1.52;;
60372;SDS011;46216;52.220;5.134;2023-08-07T14:37:24;3.80;;;1.42;;
60372;SDS011;46216;52.220;5.134;2023-08-07T14:39:49;5.13;;;1.40;;
60372;SDS011;46216;52.220;5.134;2023-08-07T14:42:15;3.70;;;1.58;;
60372;SDS011;46216;52.220;5.134;2023-08-07T14:44:41;6.25;;;2.53;;
60372;SDS011;46216;52.220;5.134;2023-08-07T14:47:06;4.30;;;1.80;;
60372;SDS011;46216;52.220;5.134;2023-08-07T14:49:31;3.22;;;1.98;;
60372;SDS011;46216;52.220;5.134;2023-08-07T14:51:57;3.58;;;1.77;;